sensor_id;sensor_type;location;lat;lon;timestamp;pressure;altitude;pressure_sealevel;temperature
45850;BMP180;10739;52.198;20.908;2023-10-13T00:02:02;100319.00;;;12.70
45850;BMP180;10739;52.198;20.908;2023-10-13T00:04:32;100319.00;;;12.80
45850;BMP180;10739;52.198;20.908;2023-10-13T00:07:02;100320.00;;;12.80
45850;BMP180;10739;52.198;20.908;2023-10-13T00:09:30;100319.00;;;12.80
45850;BMP180;10739;52.198;20.908;2023-10-13T00:12:07;100309.00;;;12.60
45850;BMP180;10739;52.198;20.908;2023-10-13T00:14:40;100316.00;;;12.70
45850;BMP180;10739;52.198;20.908;2023-10-13T00:17:11;100315.00;;;12.60
45850;BMP180;10739;52.198;20.908;2023-10-13T00:19:46;100317.00;;;12.60
45850;BMP180;10739;52.198;20.908;2023-10-13T00:22:18;100313.00;;;12.50
45850;BMP180;10739;52.198;20.908;2023-10-13T00:24:46;100317.00;;;12.50
45850;BMP180;10739;52.198;20.908;2023-10-13T00:27:15;100318.00;;;12.50
45850;BMP180;10739;52.198;20.908;2023-10-13T00:29:56;100309.00;;;12.50
45850;BMP180;10739;52.198;20.908;2023-10-13T00:32:42;100318.00;;;12.50
45850;BMP180;10739;52.198;20.908;2023-10-13T00:35:12;100334.00;;;12.50
45850;BMP180;10739;52.198;20.908;2023-10-13T00:37:55;100338.00;;;12.40
45850;BMP180;10739;52.198;20.908;2023-10-13T00:40:24;100336.00;;;12.40
45850;BMP180;10739;52.198;20.908;2023-10-13T00:43:01;100318.00;;;12.30
45850;BMP180;10739;52.198;20.908;2023-10-13T00:45:56;100331.00;;;12.20
45850;BMP180;10739;52.198;20.908;2023-10-13T00:48:38;100333.00;;;12.30
45850;BMP180;10739;52.198;20.908;2023-10-13T00:51:20;100335.00;;;12.10
45850;BMP180;10739;52.198;20.908;2023-10-13T00:54:09;100333.00;;;12.20
45850;BMP180;10739;52.198;20.908;2023-10-13T00:56:42;100345.00;;;12.10
45850;BMP180;10739;52.198;20.908;2023-10-13T00:59:19;100341.00;;;12.10
45850;BMP180;10739;52.198;20.908;2023-10-13T01:01:49;100343.00;;;12.10
45850;BMP180;10739;52.198;20.908;2023-10-13T01:04:22;100344.00;;;11.90
45850;BMP180;10739;52.198;20.908;2023-10-13T01:06:54;100341.00;;;12.00
45850;BMP180;10739;52.198;20.908;2023-10-13T01:09:20;100334.00;;;12.00
45850;BMP180;10739;52.198;20.908;2023-10-13T01:11:51;100347.00;;;11.90
45850;BMP180;10739;52.198;20.908;2023-10-13T01:14:22;100347.00;;;11.90
45850;BMP180;10739;52.198;20.908;2023-10-13T01:16:53;100344.00;;;11.90
45850;BMP180;10739;52.198;20.908;2023-10-13T01:19:22;100345.00;;;11.90
45850;BMP180;10739;52.198;20.908;2023-10-13T01:21:51;100341.00;;;11.90
45850;BMP180;10739;52.198;20.908;2023-10-13T01:24:31;100342.00;;;12.00
45850;BMP180;10739;52.198;20.908;2023-10-13T01:27:04;100346.00;;;11.90
45850;BMP180;10739;52.198;20.908;2023-10-13T01:29:44;100359.00;;;12.00
45850;BMP180;10739;52.198;20.908;2023-10-13T01:32:20;100354.00;;;12.00
45850;BMP180;10739;52.198;20.908;2023-10-13T01:34:47;100355.00;;;11.90
45850;BMP180;10739;52.198;20.908;2023-10-13T01:37:15;100357.00;;;12.00
45850;BMP180;10739;52.198;20.908;2023-10-13T01:39:42;100358.00;;;11.90
45850;BMP180;10739;52.198;20.908;2023-10-13T01:42:08;100348.00;;;11.90
45850;BMP180;10739;52.198;20.908;2023-10-13T01:44:35;100357.00;;;11.90
45850;BMP180;10739;52.198;20.908;2023-10-13T01:47:02;100360.00;;;11.90
45850;BMP180;10739;52.198;20.908;2023-10-13T01:49:35;100363.00;;;11.90
45850;BMP180;10739;52.198;20.908;2023-10-13T01:52:16;100364.00;;;11.90
45850;BMP180;10739;52.198;20.908;2023-10-13T01:54:46;100353.00;;;11.90
45850;BMP180;10739;52.198;20.908;2023-10-13T01:57:14;100349.00;;;12.00
45850;BMP180;10739;52.198;20.908;2023-10-13T01:59:44;100345.00;;;12.20
45850;BMP180;10739;52.198;20.908;2023-10-13T02:02:12;100339.00;;;12.20
45850;BMP180;10739;52.198;20.908;2023-10-13T02:04:42;100340.00;;;12.30
45850;BMP180;10739;52.198;20.908;2023-10-13T02:07:15;100341.00;;;12.30
45850;BMP180;10739;52.198;20.908;2023-10-13T02:09:42;100335.00;;;12.30
45850;BMP180;10739;52.198;20.908;2023-10-13T02:12:09;100347.00;;;12.30
45850;BMP180;10739;52.198;20.908;2023-10-13T02:14:36;100357.00;;;12.40
45850;BMP180;10739;52.198;20.908;2023-10-13T02:17:05;100352.00;;;12.40
45850;BMP180;10739;52.198;20.908;2023-10-13T02:19:43;100354.00;;;12.50
45850;BMP180;10739;52.198;20.908;2023-10-13T02:22:14;100348.00;;;12.60
45850;BMP180;10739;52.198;20.908;2023-10-13T02:25:07;100351.00;;;12.50
45850;BMP180;10739;52.198;20.908;2023-10-13T02:27:43;100351.00;;;12.50
45850;BMP180;10739;52.198;20.908;2023-10-13T02:30:10;100343.00;;;12.40
45850;BMP180;10739;52.198;20.908;2023-10-13T02:32:41;100348.00;;;12.70
45850;BMP180;10739;52.198;20.908;2023-10-13T02:35:10;100351.00;;;12.60
45850;BMP180;10739;52.198;20.908;2023-10-13T02:37:42;100346.00;;;12.60
45850;BMP180;10739;52.198;20.908;2023-10-13T02:40:20;100351.00;;;12.70
45850;BMP180;10739;52.198;20.908;2023-10-13T02:42:49;100353.00;;;12.80
45850;BMP180;10739;52.198;20.908;2023-10-13T02:45:15;100351.00;;;12.60
45850;BMP180;10739;52.198;20.908;2023-10-13T02:47:43;100353.00;;;12.70
45850;BMP180;10739;52.198;20.908;2023-10-13T02:50:10;100357.00;;;12.80
45850;BMP180;10739;52.198;20.908;2023-10-13T02:52:39;100355.00;;;12.80
45850;BMP180;10739;52.198;20.908;2023-10-13T02:55:10;100348.00;;;12.70
45850;BMP180;10739;52.198;20.908;2023-10-13T02:57:40;100356.00;;;12.70
45850;BMP180;10739;52.198;20.908;2023-10-13T03:00:07;100350.00;;;12.70
45850;BMP180;10739;52.198;20.908;2023-10-13T03:02:41;100347.00;;;12.60
45850;BMP180;10739;52.198;20.908;2023-10-13T03:05:19;100348.00;;;12.50
45850;BMP180;10739;52.198;20.908;2023-10-13T03:07:48;100351.00;;;12.50
45850;BMP180;10739;52.198;20.908;2023-10-13T03:10:16;100348.00;;;12.60
45850;BMP180;10739;52.198;20.908;2023-10-13T03:12:45;100356.00;;;12.50
45850;BMP180;10739;52.198;20.908;2023-10-13T03:15:15;100345.00;;;12.30
45850;BMP180;10739;52.198;20.908;2023-10-13T03:17:46;100334.00;;;12.20
45850;BMP180;10739;52.198;20.908;2023-10-13T03:20:15;100322.00;;;12.20
45850;BMP180;10739;52.198;20.908;2023-10-13T03:22:43;100331.00;;;12.10
45850;BMP180;10739;52.198;20.908;2023-10-13T03:25:14;100331.00;;;12.20
45850;BMP180;10739;52.198;20.908;2023-10-13T03:27:50;100322.00;;;12.20
45850;BMP180;10739;52.198;20.908;2023-10-13T03:30:17;100323.00;;;12.30
45850;BMP180;10739;52.198;20.908;2023-10-13T03:32:44;100338.00;;;12.40
45850;BMP180;10739;52.198;20.908;2023-10-13T03:35:15;100341.00;;;12.40
45850;BMP180;10739;52.198;20.908;2023-10-13T03:37:54;100343.00;;;12.20
45850;BMP180;10739;52.198;20.908;2023-10-13T03:40:21;100337.00;;;12.20
45850;BMP180;10739;52.198;20.908;2023-10-13T03:42:52;100331.00;;;12.30
45850;BMP180;10739;52.198;20.908;2023-10-13T03:45:38;100343.00;;;12.40
45850;BMP180;10739;52.198;20.908;2023-10-13T03:48:16;100344.00;;;12.40
45850;BMP180;10739;52.198;20.908;2023-10-13T03:53:42;100354.00;;;12.30
45850;BMP180;10739;52.198;20.908;2023-10-13T03:56:23;100337.00;;;12.30
45850;BMP180;10739;52.198;20.908;2023-10-13T03:59:07;100339.00;;;12.30
45850;BMP180;10739;52.198;20.908;2023-10-13T04:01:36;100338.00;;;12.40
45850;BMP180;10739;52.198;20.908;2023-10-13T04:04:24;100349.00;;;12.30
45850;BMP180;10739;52.198;20.908;2023-10-13T04:07:09;100363.00;;;12.30
45850;BMP180;10739;52.198;20.908;2023-10-13T04:09:37;100357.00;;;12.20
45850;BMP180;10739;52.198;20.908;2023-10-13T04:12:08;100352.00;;;12.20
45850;BMP180;10739;52.198;20.908;2023-10-13T04:14:44;100354.00;;;12.20
45850;BMP180;10739;52.198;20.908;2023-10-13T04:17:23;100363.00;;;12.10
45850;BMP180;10739;52.198;20.908;2023-10-13T04:19:58;100352.00;;;12.00
45850;BMP180;10739;52.198;20.908;2023-10-13T04:22:42;100353.00;;;12.10
45850;BMP180;10739;52.198;20.908;2023-10-13T04:25:21;100350.00;;;12.20
45850;BMP180;10739;52.198;20.908;2023-10-13T04:28:11;100352.00;;;12.40
45850;BMP180;10739;52.198;20.908;2023-10-13T04:30:41;100347.00;;;12.30
45850;BMP180;10739;52.198;20.908;2023-10-13T04:33:13;100349.00;;;12.50
45850;BMP180;10739;52.198;20.908;2023-10-13T04:36:21;100350.00;;;12.50
45850;BMP180;10739;52.198;20.908;2023-10-13T04:38:50;100353.00;;;12.40
45850;BMP180;10739;52.198;20.908;2023-10-13T04:41:39;100345.00;;;12.50
45850;BMP180;10739;52.198;20.908;2023-10-13T04:44:11;100338.00;;;12.60
45850;BMP180;10739;52.198;20.908;2023-10-13T04:46:59;100347.00;;;12.70
45850;BMP180;10739;52.198;20.908;2023-10-13T04:49:30;100338.00;;;12.80
45850;BMP180;10739;52.198;20.908;2023-10-13T04:52:16;100326.00;;;12.90
45850;BMP180;10739;52.198;20.908;2023-10-13T04:55:02;100325.00;;;13.00
45850;BMP180;10739;52.198;20.908;2023-10-13T04:58:03;100335.00;;;13.20
45850;BMP180;10739;52.198;20.908;2023-10-13T05:01:03;100345.00;;;13.10
45850;BMP180;10739;52.198;20.908;2023-10-13T05:03:49;100351.00;;;13.00
45850;BMP180;10739;52.198;20.908;2023-10-13T05:06:29;100344.00;;;13.10
45850;BMP180;10739;52.198;20.908;2023-10-13T05:09:15;100344.00;;;13.10
45850;BMP180;10739;52.198;20.908;2023-10-13T05:12:00;100357.00;;;13.30
45850;BMP180;10739;52.198;20.908;2023-10-13T05:14:46;100353.00;;;13.20
45850;BMP180;10739;52.198;20.908;2023-10-13T05:17:31;100350.00;;;13.20
45850;BMP180;10739;52.198;20.908;2023-10-13T05:20:16;100358.00;;;13.30
45850;BMP180;10739;52.198;20.908;2023-10-13T05:23:00;100374.00;;;13.20
45850;BMP180;10739;52.198;20.908;2023-10-13T05:25:45;100369.00;;;13.00
45850;BMP180;10739;52.198;20.908;2023-10-13T05:28:30;100372.00;;;13.10
45850;BMP180;10739;52.198;20.908;2023-10-13T05:31:18;100379.00;;;13.20
45850;BMP180;10739;52.198;20.908;2023-10-13T05:34:03;100374.00;;;13.00
45850;BMP180;10739;52.198;20.908;2023-10-13T05:36:47;100381.00;;;13.10
45850;BMP180;10739;52.198;20.908;2023-10-13T05:39:33;100376.00;;;13.10
45850;BMP180;10739;52.198;20.908;2023-10-13T05:42:18;100383.00;;;13.10
45850;BMP180;10739;52.198;20.908;2023-10-13T05:45:03;100384.00;;;13.10
45850;BMP180;10739;52.198;20.908;2023-10-13T05:47:48;100377.00;;;13.10
45850;BMP180;10739;52.198;20.908;2023-10-13T05:50:26;100382.00;;;13.10
45850;BMP180;10739;52.198;20.908;2023-10-13T05:52:52;100387.00;;;13.20
45850;BMP180;10739;52.198;20.908;2023-10-13T05:55:30;100381.00;;;13.00
45850;BMP180;10739;52.198;20.908;2023-10-13T05:58:16;100406.00;;;13.30
45850;BMP180;10739;52.198;20.908;2023-10-13T06:01:01;100416.00;;;13.30
45850;BMP180;10739;52.198;20.908;2023-10-13T06:03:46;100409.00;;;13.40
45850;BMP180;10739;52.198;20.908;2023-10-13T06:06:31;100393.00;;;13.50
45850;BMP180;10739;52.198;20.908;2023-10-13T06:09:16;100400.00;;;13.50
45850;BMP180;10739;52.198;20.908;2023-10-13T06:12:01;100396.00;;;13.60
45850;BMP180;10739;52.198;20.908;2023-10-13T06:14:47;100419.00;;;13.90
45850;BMP180;10739;52.198;20.908;2023-10-13T06:17:31;100421.00;;;13.90
45850;BMP180;10739;52.198;20.908;2023-10-13T06:20:16;100418.00;;;14.00
45850;BMP180;10739;52.198;20.908;2023-10-13T06:23:01;100424.00;;;14.20
45850;BMP180;10739;52.198;20.908;2023-10-13T06:25:53;100430.00;;;14.40
45850;BMP180;10739;52.198;20.908;2023-10-13T06:28:39;100433.00;;;14.70
45850;BMP180;10739;52.198;20.908;2023-10-13T06:31:10;100430.00;;;14.90
45850;BMP180;10739;52.198;20.908;2023-10-13T06:33:47;100440.00;;;15.00
45850;BMP180;10739;52.198;20.908;2023-10-13T06:36:14;100439.00;;;15.30
45850;BMP180;10739;52.198;20.908;2023-10-13T06:38:40;100435.00;;;15.40
45850;BMP180;10739;52.198;20.908;2023-10-13T06:41:08;100437.00;;;15.60
45850;BMP180;10739;52.198;20.908;2023-10-13T06:43:36;100437.00;;;15.80
45850;BMP180;10739;52.198;20.908;2023-10-13T06:46:10;100431.00;;;15.80
45850;BMP180;10739;52.198;20.908;2023-10-13T06:48:42;100430.00;;;15.90
45850;BMP180;10739;52.198;20.908;2023-10-13T06:51:09;100424.00;;;15.90
45850;BMP180;10739;52.198;20.908;2023-10-13T06:53:48;100418.00;;;15.90
45850;BMP180;10739;52.198;20.908;2023-10-13T06:56:15;100431.00;;;15.90
45850;BMP180;10739;52.198;20.908;2023-10-13T06:59:04;100421.00;;;15.80
45850;BMP180;10739;52.198;20.908;2023-10-13T07:01:30;100427.00;;;15.60
45850;BMP180;10739;52.198;20.908;2023-10-13T07:04:08;100428.00;;;15.90
45850;BMP180;10739;52.198;20.908;2023-10-13T07:06:44;100426.00;;;15.90
45850;BMP180;10739;52.198;20.908;2023-10-13T07:09:20;100414.00;;;15.80
45850;BMP180;10739;52.198;20.908;2023-10-13T07:12:05;100416.00;;;15.90
45850;BMP180;10739;52.198;20.908;2023-10-13T07:14:47;100421.00;;;15.40
45850;BMP180;10739;52.198;20.908;2023-10-13T07:17:19;100422.00;;;15.20
45850;BMP180;10739;52.198;20.908;2023-10-13T07:19:55;100433.00;;;14.80
45850;BMP180;10739;52.198;20.908;2023-10-13T07:22:31;100428.00;;;14.80
45850;BMP180;10739;52.198;20.908;2023-10-13T07:25:06;100427.00;;;15.00
45850;BMP180;10739;52.198;20.908;2023-10-13T07:27:33;100432.00;;;14.80
45850;BMP180;10739;52.198;20.908;2023-10-13T07:30:01;100428.00;;;15.00
45850;BMP180;10739;52.198;20.908;2023-10-13T07:32:44;100429.00;;;15.00
45850;BMP180;10739;52.198;20.908;2023-10-13T07:35:19;100429.00;;;14.90
45850;BMP180;10739;52.198;20.908;2023-10-13T07:37:53;100433.00;;;14.90
45850;BMP180;10739;52.198;20.908;2023-10-13T07:40:20;100431.00;;;14.60
45850;BMP180;10739;52.198;20.908;2023-10-13T07:42:56;100428.00;;;14.80
45850;BMP180;10739;52.198;20.908;2023-10-13T07:45:40;100428.00;;;14.60
45850;BMP180;10739;52.198;20.908;2023-10-13T07:48:11;100429.00;;;14.90
45850;BMP180;10739;52.198;20.908;2023-10-13T07:51:09;100415.00;;;15.10
45850;BMP180;10739;52.198;20.908;2023-10-13T07:53:46;100411.00;;;15.10
45850;BMP180;10739;52.198;20.908;2023-10-13T07:56:15;100420.00;;;14.90
45850;BMP180;10739;52.198;20.908;2023-10-13T07:58:46;100426.00;;;14.70
45850;BMP180;10739;52.198;20.908;2023-10-13T08:01:19;100418.00;;;15.00
45850;BMP180;10739;52.198;20.908;2023-10-13T08:03:46;100413.00;;;14.80
45850;BMP180;10739;52.198;20.908;2023-10-13T08:06:15;100409.00;;;14.90
45850;BMP180;10739;52.198;20.908;2023-10-13T08:08:42;100408.00;;;15.00
45850;BMP180;10739;52.198;20.908;2023-10-13T08:11:14;100407.00;;;15.10
45850;BMP180;10739;52.198;20.908;2023-10-13T08:13:54;100407.00;;;15.10
45850;BMP180;10739;52.198;20.908;2023-10-13T08:16:23;100406.00;;;14.90
45850;BMP180;10739;52.198;20.908;2023-10-13T08:18:50;100400.00;;;14.70
45850;BMP180;10739;52.198;20.908;2023-10-13T08:21:21;100404.00;;;14.60
45850;BMP180;10739;52.198;20.908;2023-10-13T08:23:51;100401.00;;;14.60
45850;BMP180;10739;52.198;20.908;2023-10-13T08:26:28;100396.00;;;14.50
45850;BMP180;10739;52.198;20.908;2023-10-13T08:29:17;100385.00;;;15.10
45850;BMP180;10739;52.198;20.908;2023-10-13T08:31:51;100383.00;;;14.90
45850;BMP180;10739;52.198;20.908;2023-10-13T08:34:47;100391.00;;;14.70
45850;BMP180;10739;52.198;20.908;2023-10-13T08:37:14;100387.00;;;14.90
45850;BMP180;10739;52.198;20.908;2023-10-13T08:39:56;100378.00;;;14.70
45850;BMP180;10739;52.198;20.908;2023-10-13T08:42:33;100377.00;;;14.70
45850;BMP180;10739;52.198;20.908;2023-10-13T08:45:19;100385.00;;;14.60
45850;BMP180;10739;52.198;20.908;2023-10-13T08:47:59;100380.00;;;14.90
45850;BMP180;10739;52.198;20.908;2023-10-13T08:53:25;100384.00;;;15.30
45850;BMP180;10739;52.198;20.908;2023-10-13T08:56:11;100371.00;;;15.80
45850;BMP180;10739;52.198;20.908;2023-10-13T08:58:49;100374.00;;;16.00
45850;BMP180;10739;52.198;20.908;2023-10-13T09:01:27;100367.00;;;16.10
45850;BMP180;10739;52.198;20.908;2023-10-13T09:04:16;100376.00;;;16.40
45850;BMP180;10739;52.198;20.908;2023-10-13T09:07:05;100373.00;;;16.20
45850;BMP180;10739;52.198;20.908;2023-10-13T09:09:50;100375.00;;;16.00
45850;BMP180;10739;52.198;20.908;2023-10-13T09:12:27;100371.00;;;16.10
45850;BMP180;10739;52.198;20.908;2023-10-13T09:14:59;100367.00;;;16.40
45850;BMP180;10739;52.198;20.908;2023-10-13T09:17:48;100362.00;;;16.20
45850;BMP180;10739;52.198;20.908;2023-10-13T09:20:30;100362.00;;;16.30
45850;BMP180;10739;52.198;20.908;2023-10-13T09:23:10;100367.00;;;16.40
45850;BMP180;10739;52.198;20.908;2023-10-13T09:25:40;100372.00;;;16.60
45850;BMP180;10739;52.198;20.908;2023-10-13T09:28:30;100368.00;;;16.40
45850;BMP180;10739;52.198;20.908;2023-10-13T09:30:57;100365.00;;;16.30
45850;BMP180;10739;52.198;20.908;2023-10-13T09:33:25;100365.00;;;16.40
45850;BMP180;10739;52.198;20.908;2023-10-13T09:36:02;100363.00;;;16.60
45850;BMP180;10739;52.198;20.908;2023-10-13T09:38:35;100360.00;;;17.10
45850;BMP180;10739;52.198;20.908;2023-10-13T09:41:25;100360.00;;;17.50
45850;BMP180;10739;52.198;20.908;2023-10-13T09:43:59;100356.00;;;16.90
45850;BMP180;10739;52.198;20.908;2023-10-13T09:46:31;100361.00;;;16.90
45850;BMP180;10739;52.198;20.908;2023-10-13T09:49:12;100349.00;;;16.60
45850;BMP180;10739;52.198;20.908;2023-10-13T09:51:49;100343.00;;;16.80
45850;BMP180;10739;52.198;20.908;2023-10-13T09:54:29;100342.00;;;16.60
45850;BMP180;10739;52.198;20.908;2023-10-13T09:57:08;100347.00;;;17.00
45850;BMP180;10739;52.198;20.908;2023-10-13T09:59:51;100326.00;;;17.10
45850;BMP180;10739;52.198;20.908;2023-10-13T10:02:19;100335.00;;;17.70
45850;BMP180;10739;52.198;20.908;2023-10-13T10:04:55;100333.00;;;17.40
45850;BMP180;10739;52.198;20.908;2023-10-13T10:07:38;100325.00;;;17.90
45850;BMP180;10739;52.198;20.908;2023-10-13T10:10:11;100325.00;;;18.00
45850;BMP180;10739;52.198;20.908;2023-10-13T10:13:35;100331.00;;;17.90
45850;BMP180;10739;52.198;20.908;2023-10-13T10:16:11;100326.00;;;17.90
45850;BMP180;10739;52.198;20.908;2023-10-13T10:18:45;100321.00;;;18.10
45850;BMP180;10739;52.198;20.908;2023-10-13T10:21:11;100317.00;;;18.00
45850;BMP180;10739;52.198;20.908;2023-10-13T10:23:41;100311.00;;;18.00
45850;BMP180;10739;52.198;20.908;2023-10-13T10:26:19;100303.00;;;17.90
45850;BMP180;10739;52.198;20.908;2023-10-13T10:28:48;100297.00;;;18.10
45850;BMP180;10739;52.198;20.908;2023-10-13T10:31:15;100293.00;;;17.90
45850;BMP180;10739;52.198;20.908;2023-10-13T10:33:43;100287.00;;;18.30
45850;BMP180;10739;52.198;20.908;2023-10-13T10:36:10;100294.00;;;18.50
45850;BMP180;10739;52.198;20.908;2023-10-13T10:38:57;100289.00;;;18.40
45850;BMP180;10739;52.198;20.908;2023-10-13T10:41:28;100285.00;;;18.10
45850;BMP180;10739;52.198;20.908;2023-10-13T10:44:15;100284.00;;;18.10
45850;BMP180;10739;52.198;20.908;2023-10-13T10:47:16;100272.00;;;18.50
45850;BMP180;10739;52.198;20.908;2023-10-13T10:49:58;100269.00;;;18.70
45850;BMP180;10739;52.198;20.908;2023-10-13T10:52:27;100274.00;;;18.80
45850;BMP180;10739;52.198;20.908;2023-10-13T10:55:04;100258.00;;;19.10
45850;BMP180;10739;52.198;20.908;2023-10-13T10:57:34;100255.00;;;19.40
45850;BMP180;10739;52.198;20.908;2023-10-13T11:00:06;100254.00;;;19.20
45850;BMP180;10739;52.198;20.908;2023-10-13T11:02:56;100258.00;;;18.80
45850;BMP180;10739;52.198;20.908;2023-10-13T11:05:23;100246.00;;;18.90
45850;BMP180;10739;52.198;20.908;2023-10-13T11:07:59;100252.00;;;19.20
45850;BMP180;10739;52.198;20.908;2023-10-13T11:10:25;100237.00;;;18.90
45850;BMP180;10739;52.198;20.908;2023-10-13T11:13:00;100249.00;;;19.10
45850;BMP180;10739;52.198;20.908;2023-10-13T11:15:44;100243.00;;;19.50
45850;BMP180;10739;52.198;20.908;2023-10-13T11:18:14;100242.00;;;19.70
45850;BMP180;10739;52.198;20.908;2023-10-13T11:20:49;100235.00;;;19.90
45850;BMP180;10739;52.198;20.908;2023-10-13T11:23:20;100221.00;;;20.20
45850;BMP180;10739;52.198;20.908;2023-10-13T11:26:00;100229.00;;;20.60
45850;BMP180;10739;52.198;20.908;2023-10-13T11:28:27;100219.00;;;20.90
45850;BMP180;10739;52.198;20.908;2023-10-13T11:30:54;100218.00;;;20.50
45850;BMP180;10739;52.198;20.908;2023-10-13T11:33:43;100211.00;;;20.00
45850;BMP180;10739;52.198;20.908;2023-10-13T11:36:12;100214.00;;;19.90
45850;BMP180;10739;52.198;20.908;2023-10-13T11:38:43;100210.00;;;19.70
45850;BMP180;10739;52.198;20.908;2023-10-13T11:41:16;100202.00;;;19.80
45850;BMP180;10739;52.198;20.908;2023-10-13T11:43:49;100203.00;;;20.10
45850;BMP180;10739;52.198;20.908;2023-10-13T11:46:25;100199.00;;;20.20
45850;BMP180;10739;52.198;20.908;2023-10-13T11:49:09;100198.00;;;19.90
45850;BMP180;10739;52.198;20.908;2023-10-13T11:51:49;100194.00;;;20.10
45850;BMP180;10739;52.198;20.908;2023-10-13T11:54:17;100196.00;;;20.00
45850;BMP180;10739;52.198;20.908;2023-10-13T11:56:47;100197.00;;;19.90
45850;BMP180;10739;52.198;20.908;2023-10-13T11:59:13;100197.00;;;20.20
45850;BMP180;10739;52.198;20.908;2023-10-13T12:01:51;100192.00;;;20.40
45850;BMP180;10739;52.198;20.908;2023-10-13T12:04:37;100189.00;;;20.60
45850;BMP180;10739;52.198;20.908;2023-10-13T12:07:15;100179.00;;;20.60
45850;BMP180;10739;52.198;20.908;2023-10-13T12:10:11;100185.00;;;20.40
45850;BMP180;10739;52.198;20.908;2023-10-13T12:13:01;100174.00;;;20.60
45850;BMP180;10739;52.198;20.908;2023-10-13T12:15:34;100171.00;;;20.50
45850;BMP180;10739;52.198;20.908;2023-10-13T12:18:04;100168.00;;;20.70
45850;BMP180;10739;52.198;20.908;2023-10-13T12:20:30;100168.00;;;20.80
45850;BMP180;10739;52.198;20.908;2023-10-13T12:23:01;100165.00;;;21.00
45850;BMP180;10739;52.198;20.908;2023-10-13T12:25:39;100162.00;;;20.70
45850;BMP180;10739;52.198;20.908;2023-10-13T12:28:24;100151.00;;;20.90
45850;BMP180;10739;52.198;20.908;2023-10-13T12:30:54;100149.00;;;20.90
45850;BMP180;10739;52.198;20.908;2023-10-13T12:33:24;100138.00;;;21.10
45850;BMP180;10739;52.198;20.908;2023-10-13T12:36:03;100138.00;;;20.90
45850;BMP180;10739;52.198;20.908;2023-10-13T12:38:49;100141.00;;;20.90
45850;BMP180;10739;52.198;20.908;2023-10-13T12:41:19;100136.00;;;20.80
45850;BMP180;10739;52.198;20.908;2023-10-13T12:44:06;100130.00;;;21.20
45850;BMP180;10739;52.198;20.908;2023-10-13T12:46:52;100127.00;;;21.30
45850;BMP180;10739;52.198;20.908;2023-10-13T12:49:37;100129.00;;;21.30
45850;BMP180;10739;52.198;20.908;2023-10-13T12:52:09;100124.00;;;21.20
45850;BMP180;10739;52.198;20.908;2023-10-13T12:54:46;100126.00;;;21.20
45850;BMP180;10739;52.198;20.908;2023-10-13T12:57:28;100117.00;;;20.90
45850;BMP180;10739;52.198;20.908;2023-10-13T12:59:55;100115.00;;;20.80
45850;BMP180;10739;52.198;20.908;2023-10-13T13:02:22;100117.00;;;21.00
45850;BMP180;10739;52.198;20.908;2023-10-13T13:04:52;100122.00;;;21.20
45850;BMP180;10739;52.198;20.908;2023-10-13T13:07:48;100128.00;;;21.20
45850;BMP180;10739;52.198;20.908;2023-10-13T13:10:18;100121.00;;;21.10
45850;BMP180;10739;52.198;20.908;2023-10-13T13:12:45;100120.00;;;21.80
45850;BMP180;10739;52.198;20.908;2023-10-13T13:15:11;100120.00;;;21.80
45850;BMP180;10739;52.198;20.908;2023-10-13T13:17:39;100115.00;;;21.70
45850;BMP180;10739;52.198;20.908;2023-10-13T13:20:07;100100.00;;;21.70
45850;BMP180;10739;52.198;20.908;2023-10-13T13:22:38;100110.00;;;21.70
45850;BMP180;10739;52.198;20.908;2023-10-13T13:25:05;100101.00;;;21.60
45850;BMP180;10739;52.198;20.908;2023-10-13T13:27:35;100104.00;;;21.70
45850;BMP180;10739;52.198;20.908;2023-10-13T13:30:03;100108.00;;;21.60
45850;BMP180;10739;52.198;20.908;2023-10-13T13:32:39;100091.00;;;21.60
45850;BMP180;10739;52.198;20.908;2023-10-13T13:35:07;100089.00;;;21.70
45850;BMP180;10739;52.198;20.908;2023-10-13T13:37:35;100090.00;;;21.70
45850;BMP180;10739;52.198;20.908;2023-10-13T13:40:07;100073.00;;;21.50
45850;BMP180;10739;52.198;20.908;2023-10-13T13:42:44;100075.00;;;21.80
45850;BMP180;10739;52.198;20.908;2023-10-13T13:45:15;100061.00;;;21.50
45850;BMP180;10739;52.198;20.908;2023-10-13T13:48:01;100062.00;;;21.70
45850;BMP180;10739;52.198;20.908;2023-10-13T13:50:37;100057.00;;;21.60
45850;BMP180;10739;52.198;20.908;2023-10-13T13:53:07;100069.00;;;21.60
45850;BMP180;10739;52.198;20.908;2023-10-13T13:55:37;100065.00;;;21.80
45850;BMP180;10739;52.198;20.908;2023-10-13T13:58:06;100066.00;;;21.80
45850;BMP180;10739;52.198;20.908;2023-10-13T14:00:36;100058.00;;;21.80
45850;BMP180;10739;52.198;20.908;2023-10-13T14:03:07;100054.00;;;21.80
45850;BMP180;10739;52.198;20.908;2023-10-13T14:05:44;100053.00;;;21.60
45850;BMP180;10739;52.198;20.908;2023-10-13T14:08:11;100054.00;;;22.00
45850;BMP180;10739;52.198;20.908;2023-10-13T14:10:41;100050.00;;;21.70
45850;BMP180;10739;52.198;20.908;2023-10-13T14:13:26;100040.00;;;21.90
45850;BMP180;10739;52.198;20.908;2023-10-13T14:16:12;100045.00;;;21.90
45850;BMP180;10739;52.198;20.908;2023-10-13T14:18:50;100040.00;;;21.90
45850;BMP180;10739;52.198;20.908;2023-10-13T14:21:18;100041.00;;;22.00
45850;BMP180;10739;52.198;20.908;2023-10-13T14:23:51;100031.00;;;22.00
45850;BMP180;10739;52.198;20.908;2023-10-13T14:26:21;100027.00;;;21.90
45850;BMP180;10739;52.198;20.908;2023-10-13T14:28:52;100031.00;;;21.80
45850;BMP180;10739;52.198;20.908;2023-10-13T14:31:31;100031.00;;;21.70
45850;BMP180;10739;52.198;20.908;2023-10-13T14:33:58;100034.00;;;21.80
45850;BMP180;10739;52.198;20.908;2023-10-13T14:36:25;100037.00;;;21.80
45850;BMP180;10739;52.198;20.908;2023-10-13T14:38:57;100030.00;;;22.00